Gonzalez, Florida
Current Conditions -  °F | °C
As of 3:53 AM on Thursday 23 Oct 2014 (Local Time) from KPNS Reporting Station
Clear Clear  
Wind Chill: 56°   Ceiling: Unl
Heat Index: 56°   Visibility: 10mi
Dew Point: 45°   Wind: 7mph
Humidity: 67%   Direction: 30°NNE
Pressure: 30.04"   Gusts: NA
Location:  30.58°N, 87.29°W
Report Text: KPNS 230853Z AUTO 03006KT 10SM CLR 13/07 A3004 RMK AO2 SLP173 T01330072 58004
Loading
Personal Weather Stations






























Interactive Weather Map
Tropical Storm Tracking
New forecast layout! Learn more

10-Day Weather Forecast

Advertisements
Track Severe Weather on mobile